Whittington, United Kingdom
Current Conditions -  °F | °C
As of 4:50 PM on Thursday 23 Oct 2014 (Local Time) from EGBB Reporting Station
Broken Clouds Broken Clouds  
Wind Chill: 59°   Ceiling: 1200
Heat Index: 59°   Visibility: 6mi
Dew Point: 54°   Wind: 8mph
Humidity: 82%   Direction: 200°SSW
Pressure: 29.97"   Gusts: NA
Location:  52.68°N, 1.77°W
Report Text: EGBB 231550Z 20007KT 170V240 9999 BKN012 BKN023 15/12 Q1015
Loading
Personal Weather Stations






























Interactive Weather Map
Tropical Storm Tracking
New forecast layout! Learn more

10-Day Weather Forecast

Advertisements
Track Severe Weather on mobile